OIII

Mehrabad Airport

Airport
ICAO code
OIII
IATA Code
THR
Summary
ICAO Region
MID
ICAO Territory
Location

Mehr Abad, Tehran

Serving
Tehran
Elevation
3962 ft
Coordinates
35° 41' 21" N , 51° 18' 49" E
KCC
Airport RE
Hot and High Operations
Metar
Observation
OIII 070200Z 29004KT 4000 HZ SCT035 BKN090 05/01 Q1022 A3021 NOSIG
Station
Tehran-Mehrabad
Date/Time
2022-12-07 02:00:00
Wind direction
290°
Wind speed
04 kts
Lowest cloud amount
scattered clouds
Temperature
5°C
Dew point
1°C
Humidity
75%
QNH
1022 hPa
Weather condition
n/a

Domestic airport serving Tehran, the capital of Iran.

Climatology

Cold Semi-arid climate (Köppen climate classification BSk).

Runways

Designator Length Width Surface Rops
9/27 474 40 CON No/No
11L/29R 3992 45 ASP Yes/Yes
11R/29L 4038 60 ASP Yes/Yes

SKYbrary Partners:

Safety knowledge contributed by: